Time;durP1;ratioP1;P1;durP2;ratioP2;P2;SDS_P1;SDS_P2;PMS_P1;PMS_P2;Temp;Humidity;BMP_temperature;BMP_pressure;BME280_temperature;BME280_humidity;BME280_pressure;Samples;Min_cycle;Max_cycle;Signal;HPM_P1;HPM_P2
2022/08/22 00:00:14;;;;;;;7.45;2.30;;;;;;;14.88;100.00;98402.28;5127676;28;20028;-96
2022/08/22 00:03:02;;;;;;;7.25;2.50;;;;;;;14.91;100.00;98412.69;5123088;27;20028;-96
2022/08/22 00:05:53;;;;;;;9.93;2.20;;;;;;;14.73;100.00;98414.13;5117146;28;20418;-95
2022/08/22 00:09:01;;;;;;;8.18;2.20;;;;;;;14.92;100.00;98414.41;5114666;28;20019;-96
2022/08/22 00:11:30;;;;;;;6.05;2.10;;;;;;;14.78;100.00;98416.59;5109216;28;20034;-96
2022/08/22 00:14:16;;;;;;;8.25;2.35;;;;;;;14.87;100.00;98402.34;5104891;28;20034;-94
2022/08/22 00:17:02;;;;;;;7.63;2.45;;;;;;;14.92;100.00;98395.16;5107806;28;20047;-94
2022/08/22 00:20:06;;;;;;;8.50;2.40;;;;;;;14.96;100.00;98399.41;5121142;28;20030;-94
2022/08/22 00:22:41;;;;;;;8.68;2.55;;;;;;;14.83;100.00;98410.31;5116686;28;20027;-95
2022/08/22 00:25:25;;;;;;;8.38;2.55;;;;;;;15.08;100.00;98408.66;5107212;28;20039;-95
2022/08/22 00:28:18;;;;;;;8.77;2.30;;;;;;;14.94;100.00;98396.00;5113257;28;20124;-94
2022/08/22 00:30:48;;;;;;;8.80;2.28;;;;;;;15.02;100.00;98410.56;5110966;28;20039;-96
2022/08/22 00:33:44;;;;;;;7.05;2.33;;;;;;;14.74;100.00;98396.59;5111224;28;20047;-96
2022/08/22 00:36:29;;;;;;;10.05;2.33;;;;;;;14.84;100.00;98398.06;5020948;28;20056;-93
2022/08/22 00:39:18;;;;;;;10.23;2.70;;;;;;;14.99;100.00;98407.22;5031146;28;20041;-96
2022/08/22 00:41:51;;;;;;;8.77;2.30;;;;;;;14.92;100.00;98388.16;5028184;28;20129;-96
2022/08/22 00:44:35;;;;;;;7.35;2.13;;;;;;;14.84;100.00;98377.03;5031139;28;20030;-96
2022/08/22 00:47:35;;;;;;;9.30;2.35;;;;;;;14.93;100.00;98371.47;5015187;28;20057;-93
2022/08/22 00:50:27;;;;;;;7.63;2.20;;;;;;;15.06;100.00;98384.19;5003535;28;20041;-96
2022/08/22 00:53:11;;;;;;;6.90;1.98;;;;;;;15.10;100.00;98376.19;5031891;28;20058;-96
2022/08/22 00:55:56;;;;;;;10.13;1.95;;;;;;;14.95;100.00;98361.78;5029872;28;20042;-96
2022/08/22 00:58:59;;;;;;;8.32;2.05;;;;;;;14.93;100.00;98370.63;5027066;28;20046;-96
2022/08/22 01:01:34;;;;;;;7.97;1.85;;;;;;;14.97;100.00;98373.09;5026898;28;20051;-93
2022/08/22 01:04:40;;;;;;;8.82;1.88;;;;;;;14.87;100.00;98361.19;5009350;28;20597;-95
2022/08/22 01:07:37;;;;;;;7.20;1.80;;;;;;;15.05;100.00;98372.00;4995065;28;20097;-96
2022/08/22 01:10:49;;;;;;;6.20;1.60;;;;;;;15.11;100.00;98364.75;4997185;28;20061;-95
2022/08/22 01:13:14;;;;;;;6.47;1.73;;;;;;;15.30;100.00;98364.16;5034290;28;20043;-95
2022/08/22 01:15:45;;;;;;;6.82;1.92;;;;;;;15.33;100.00;98356.16;5060533;28;20445;-96
2022/08/22 01:18:44;;;;;;;7.47;1.98;;;;;;;15.17;100.00;98356.69;5052878;28;20028;-95
2022/08/22 01:21:34;;;;;;;7.63;2.00;;;;;;;15.14;100.00;98362.03;5047617;28;20033;-95
2022/08/22 01:24:37;;;;;;;6.90;1.40;;;;;;;14.95;100.00;98360.94;5069057;28;20414;-95
2022/08/22 01:27:22;;;;;;;6.72;1.83;;;;;;;14.94;100.00;98352.19;5063504;28;20097;-96
2022/08/22 01:30:18;;;;;;;6.80;1.50;;;;;;;14.82;100.00;98344.72;5052425;28;20039;-96
2022/08/22 01:33:08;;;;;;;7.05;1.63;;;;;;;14.96;100.00;98339.00;5064898;28;20025;-95
2022/08/22 01:36:05;;;;;;;6.72;1.30;;;;;;;15.03;100.00;98348.44;5069135;28;20048;-96
2022/08/22 01:39:00;;;;;;;6.13;1.35;;;;;;;15.24;100.00;98361.72;5029390;28;20033;-94
2022/08/22 01:42:08;;;;;;;5.97;1.40;;;;;;;15.20;100.00;98360.97;5044279;28;20056;-94
2022/08/22 01:44:51;;;;;;;8.10;1.50;;;;;;;15.10;100.00;98357.81;5041159;28;20041;-94
2022/08/22 01:47:25;;;;;;;6.07;1.25;;;;;;;15.12;100.00;98349.88;5057408;28;20549;-94
2022/08/22 01:50:21;;;;;;;4.78;1.20;;;;;;;15.12;100.00;98337.59;5054277;28;20136;-95
2022/08/22 01:53:21;;;;;;;6.32;1.25;;;;;;;15.01;100.00;98326.59;5034603;28;20032;-95
2022/08/22 01:56:07;;;;;;;4.35;0.82;;;;;;;15.22;100.00;98332.88;5033507;28;20124;-96
2022/08/22 01:58:36;;;;;;;4.75;1.13;;;;;;;15.14;100.00;98319.16;5056657;28;20040;-93
2022/08/22 02:01:09;;;;;;;4.82;1.10;;;;;;;15.00;100.00;98311.75;5039977;28;20095;-95
2022/08/22 02:03:59;;;;;;;4.85;1.25;;;;;;;15.12;100.00;98311.31;5028107;28;20129;-96
2022/08/22 02:07:07;;;;;;;4.90;1.20;;;;;;;14.89;100.00;98313.88;5046574;28;20025;-96
2022/08/22 02:10:02;;;;;;;6.70;1.17;;;;;;;15.08;100.00;98314.13;5032091;28;20133;-95
2022/08/22 02:12:41;;;;;;;4.00;1.20;;;;;;;14.92;100.00;98306.78;5036928;28;20092;-96
2022/08/22 02:15:13;;;;;;;6.40;1.10;;;;;;;14.81;100.00;98303.66;5088179;28;20059;-96
2022/08/22 02:18:03;;;;;;;4.68;1.20;;;;;;;14.73;100.00;98303.03;5111030;28;20024;-96
2022/08/22 02:20:32;;;;;;;6.72;1.40;;;;;;;14.67;100.00;98299.69;5114173;28;20027;-93
2022/08/22 02:23:19;;;;;;;6.72;1.30;;;;;;;14.52;100.00;98290.53;5111368;28;20138;-94
2022/08/22 02:25:47;;;;;;;6.25;1.00;;;;;;;14.42;100.00;98288.25;5109037;28;20081;-96
2022/08/22 02:28:31;;;;;;;4.13;1.00;;;;;;;14.41;100.00;98270.81;5101199;28;20103;-94
2022/08/22 02:31:09;;;;;;;4.68;1.20;;;;;;;14.33;100.00;98274.53;5112546;28;20023;-95
2022/08/22 02:33:55;;;;;;;4.65;1.08;;;;;;;14.12;100.00;98260.31;5109756;28;20107;-94
2022/08/22 02:36:24;;;;;;;4.28;1.10;;;;;;;14.02;100.00;98265.94;5113411;28;20020;-93
2022/08/22 02:39:26;;;;;;;5.57;1.10;;;;;;;14.04;100.00;98280.69;5112381;28;20019;-96
2022/08/22 02:42:13;;;;;;;6.00;1.13;;;;;;;14.29;100.00;98288.66;5109630;28;20031;-96
2022/08/22 02:45:08;;;;;;;5.85;1.10;;;;;;;14.26;100.00;98262.50;5114307;28;20114;-95
2022/08/22 02:48:04;;;;;;;4.97;1.20;;;;;;;14.19;100.00;98263.63;5076405;28;20471;-96
2022/08/22 02:50:36;;;;;;;5.00;1.42;;;;;;;14.15;100.00;98260.25;5106166;28;20560;-95
2022/08/22 02:53:32;;;;;;;6.63;1.48;;;;;;;14.19;100.00;98262.78;5106201;28;20027;-95
2022/08/22 02:56:09;;;;;;;4.05;1.00;;;;;;;14.19;100.00;98261.00;5120605;28;20048;-94
2022/08/22 02:58:50;;;;;;;5.07;1.10;;;;;;;14.18;100.00;98261.88;5110023;28;20086;-94
2022/08/22 03:01:40;;;;;;;5.80;1.10;;;;;;;14.21;100.00;98260.94;5124112;28;20023;-95
2022/08/22 03:04:22;;;;;;;5.57;1.02;;;;;;;14.19;100.00;98247.88;5125759;28;20042;-94
2022/08/22 03:06:57;;;;;;;5.82;1.30;;;;;;;14.23;100.00;98262.63;5114828;28;20031;-96
2022/08/22 03:09:31;;;;;;;5.78;1.20;;;;;;;14.18;100.00;98254.03;5110686;28;20032;-93
2022/08/22 03:12:15;;;;;;;5.90;1.20;;;;;;;14.11;100.00;98258.63;5117557;28;20039;-95
2022/08/22 03:15:02;;;;;;;4.32;0.93;;;;;;;14.02;100.00;98274.63;5120357;28;20039;-95
2022/08/22 03:17:38;;;;;;;6.93;1.13;;;;;;;14.44;100.00;98281.19;5113368;28;20024;-95
2022/08/22 03:20:12;;;;;;;3.95;0.98;;;;;;;14.42;100.00;98270.75;5110447;28;20035;-95
2022/08/22 03:22:51;;;;;;;7.28;1.50;;;;;;;14.56;100.00;98258.94;5103951;28;20040;-96
2022/08/22 03:25:44;;;;;;;5.13;0.90;;;;;;;14.34;100.00;98254.41;5119630;28;20105;-96
2022/08/22 03:28:21;;;;;;;4.43;1.13;;;;;;;14.37;100.00;98242.97;5114713;28;20058;-96
2022/08/22 03:30:54;;;;;;;4.40;1.00;;;;;;;14.12;100.00;98259.47;5104131;28;20028;-96
2022/08/22 03:33:39;;;;;;;7.20;1.30;;;;;;;14.08;100.00;98242.13;5109218;28;20027;-96
2022/08/22 03:36:24;;;;;;;5.38;0.90;;;;;;;14.37;100.00;98248.22;5104107;28;20028;-96
2022/08/22 03:39:03;;;;;;;5.32;1.10;;;;;;;14.30;100.00;98237.91;5098968;28;20575;-96
2022/08/22 03:42:01;;;;;;;5.90;1.30;;;;;;;14.29;100.00;98249.31;5104219;28;20035;-93
2022/08/22 03:44:40;;;;;;;8.55;1.05;;;;;;;14.24;100.00;98255.63;5106174;28;20039;-96
2022/08/22 03:47:22;;;;;;;5.18;1.00;;;;;;;14.41;100.00;98250.66;5102192;28;20035;-94
2022/08/22 03:50:35;;;;;;;5.80;1.23;;;;;;;14.53;100.00;98249.44;5119732;28;20027;-93
2022/08/22 03:53:24;;;;;;;5.45;1.08;;;;;;;14.23;100.00;98240.78;5134438;28;20039;-93
2022/08/22 03:55:55;;;;;;;7.35;1.20;;;;;;;14.34;100.00;98247.38;5123643;28;20077;-95
2022/08/22 03:58:58;;;;;;;5.20;1.38;;;;;;;14.33;100.00;98234.31;5119046;28;20035;-94
2022/08/22 04:01:43;;;;;;;6.35;1.35;;;;;;;14.27;100.00;98227.50;5107701;28;20012;-94
2022/08/22 04:04:30;;;;;;;4.90;1.10;;;;;;;14.19;100.00;98218.19;5126701;28;20083;-94
2022/08/22 04:07:24;;;;;;;5.00;1.05;;;;;;;13.95;100.00;98208.44;5106972;28;20437;-92
2022/08/22 04:10:17;;;;;;;4.88;1.08;;;;;;;13.62;100.00;98192.84;5095724;28;20040;-91
2022/08/22 04:12:51;;;;;;;7.80;1.08;;;;;;;13.59;100.00;98207.81;5101882;28;20047;-91
2022/08/22 04:15:41;;;;;;;4.85;1.00;;;;;;;13.58;100.00;98201.69;5098228;28;20051;-95
2022/08/22 04:18:28;;;;;;;6.28;1.50;;;;;;;13.57;100.00;98202.63;5102788;28;20039;-94
2022/08/22 04:21:35;;;;;;;5.97;1.05;;;;;;;13.59;100.00;98199.94;5099755;28;20024;-91
2022/08/22 04:24:18;;;;;;;5.25;1.17;;;;;;;13.62;100.00;98192.84;5101191;28;20035;-92
2022/08/22 04:27:28;;;;;;;5.47;1.00;;;;;;;13.84;100.00;98197.44;5104012;28;20038;-91
2022/08/22 04:30:15;;;;;;;7.95;1.40;;;;;;;13.70;100.00;98192.63;5037653;28;20044;-92
2022/08/22 04:32:47;;;;;;;7.57;1.40;;;;;;;13.61;100.00;98205.97;5041480;28;20391;-93
2022/08/22 04:35:31;;;;;;;5.22;1.30;;;;;;;13.65;100.00;98204.97;5043987;28;20549;-91
2022/08/22 04:38:11;;;;;;;6.13;1.40;;;;;;;13.40;100.00;98191.78;5039615;28;20094;-93
2022/08/22 04:40:44;;;;;;;8.60;1.58;;;;;;;13.73;100.00;98189.03;5043193;28;20048;-93
2022/08/22 04:43:15;;;;;;;;;;;;;;;13.80;100.00;98185.31;5043844;28;20033;-92
2022/08/22 04:45:57;;;;;;;7.28;1.70;;;;;;;13.79;100.00;98179.22;5040906;28;20443;-91
2022/08/22 04:48:34;;;;;;;8.35;1.90;;;;;;;13.69;100.00;98192.66;5022049;28;20033;-91
2022/08/22 04:51:09;;;;;;;7.63;1.77;;;;;;;13.91;100.00;98200.72;5039205;28;20045;-93
2022/08/22 04:53:46;;;;;;;6.60;1.83;;;;;;;13.89;100.00;98205.13;5024462;28;20048;-93
2022/08/22 04:56:31;;;;;;;7.07;1.60;;;;;;;14.00;100.00;98206.53;5042848;28;20041;-93
2022/08/22 04:59:00;;;;;;;5.38;1.65;;;;;;;14.05;100.00;98200.28;5044283;28;20079;-92
2022/08/22 05:01:41;;;;;;;6.32;1.75;;;;;;;13.76;100.00;98196.81;5034803;28;20043;-91
2022/08/22 05:04:38;;;;;;;5.30;1.58;;;;;;;13.77;100.00;98201.16;5063780;28;20043;-92
2022/08/22 05:07:23;;;;;;;7.53;1.52;;;;;;;13.96;100.00;98207.53;5090181;28;20560;-92
2022/08/22 05:10:01;;;;;;;7.95;1.80;;;;;;;14.10;100.00;98207.09;5098544;28;20042;-92
2022/08/22 05:12:31;;;;;;;8.38;1.70;;;;;;;14.14;100.00;98205.19;5109326;27;20024;-92
2022/08/22 05:15:12;;;;;;;7.68;1.60;;;;;;;14.39;100.00;98204.41;5094319;28;20039;-91
2022/08/22 05:17:41;;;;;;;7.95;2.17;;;;;;;14.81;100.00;98217.03;5090678;28;20134;-93
2022/08/22 05:20:13;;;;;;;7.35;1.90;;;;;;;14.54;100.00;98216.16;5102577;28;20027;-92
2022/08/22 05:22:45;;;;;;;6.57;2.00;;;;;;;14.41;100.00;98210.47;5097052;28;20032;-91
2022/08/22 05:25:16;;;;;;;7.45;1.83;;;;;;;14.55;100.00;98212.63;5089152;28;20016;-91
2022/08/22 05:27:47;;;;;;;6.97;1.45;;;;;;;14.68;100.00;98217.44;5091797;28;20111;-93
2022/08/22 05:30:20;;;;;;;6.95;2.30;;;;;;;14.97;100.00;98223.41;5094121;28;20118;-92
2022/08/22 05:32:52;;;;;;;6.00;1.67;;;;;;;15.23;100.00;98218.16;5096391;28;20032;-93
2022/08/22 05:35:28;;;;;;;6.40;1.90;;;;;;;15.26;100.00;98218.88;5094063;28;20039;-94
2022/08/22 05:37:55;;;;;;;7.70;1.55;;;;;;;15.24;100.00;98212.84;5100172;28;20040;-94
2022/08/22 05:40:28;;;;;;;8.95;1.98;;;;;;;15.38;100.00;98211.47;5092994;28;20375;-91
2022/08/22 05:42:56;;;;;;;6.50;1.85;;;;;;;15.94;100.00;98220.78;5105605;28;20592;-92
2022/08/22 05:45:23;;;;;;;7.25;1.83;;;;;;;16.14;100.00;98217.31;5102405;28;20023;-92
2022/08/22 05:48:02;;;;;;;8.27;2.10;;;;;;;15.86;100.00;98205.28;5110621;28;20502;-93
2022/08/22 05:50:42;;;;;;;8.55;1.90;;;;;;;16.13;100.00;98210.34;5095639;28;20146;-92
2022/08/22 05:53:17;;;;;;;6.43;1.85;;;;;;;16.76;100.00;98215.63;5105144;28;20035;-92
2022/08/22 05:56:19;;;;;;;6.70;1.73;;;;;;;16.13;100.00;98207.72;5093910;28;20182;-92
2022/08/22 05:58:47;;;;;;;6.72;1.83;;;;;;;16.13;100.00;98211.22;5097874;28;20031;-92
2022/08/22 06:01:26;;;;;;;5.78;1.63;;;;;;;16.32;100.00;98205.19;5099506;28;20051;-93
2022/08/22 06:03:57;;;;;;;8.93;2.00;;;;;;;16.19;100.00;98212.75;5100960;28;20038;-91
2022/08/22 06:06:27;;;;;;;7.53;1.80;;;;;;;15.66;100.00;98201.63;5099497;28;20040;-92
2022/08/22 06:09:29;;;;;;;8.85;1.80;;;;;;;15.77;100.00;98208.22;5115474;28;20022;-94
2022/08/22 06:12:09;;;;;;;10.00;2.20;;;;;;;15.98;100.00;98191.66;5101832;28;20121;-94
2022/08/22 06:15:00;;;;;;;9.50;1.98;;;;;;;15.80;100.00;98195.88;5097352;28;20038;-93
2022/08/22 06:17:33;;;;;;;6.03;1.67;;;;;;;15.41;100.00;98190.34;5102245;28;20093;-93
2022/08/22 06:19:59;;;;;;;;;;;;;;;15.72;100.00;98194.44;5110327;28;20023;-91
2022/08/22 06:22:33;;;;;;;5.57;1.67;;;;;;;15.43;100.00;98191.97;5119200;28;19923;-91
2022/08/22 06:25:17;;;;;;;5.40;1.42;;;;;;;15.25;100.00;98209.28;5105524;28;20016;-94
2022/08/22 06:27:46;;;;;;;6.72;1.58;;;;;;;15.33;100.00;98209.03;5107012;28;20051;-94
2022/08/22 06:30:14;;;;;;;10.18;1.90;;;;;;;15.85;100.00;98195.66;5101643;28;20023;-92
2022/08/22 06:32:44;;;;;;;7.28;1.70;;;;;;;15.62;100.00;98179.00;5101538;28;20560;-95
2022/08/22 06:38:52;;;;;;;7.78;1.77;;;;;;;15.29;100.00;98208.25;5087494;28;20469;-95
2022/08/22 06:41:21;;;;;;;7.15;2.20;;;;;;;15.34;100.00;98211.59;5088725;28;20066;-94
2022/08/22 06:43:51;;;;;;;9.05;2.20;;;;;;;15.55;100.00;98224.84;5094871;28;20019;-94
2022/08/22 06:46:18;;;;;;;8.35;2.38;;;;;;;15.56;100.00;98229.19;5103912;28;20023;-96
2022/08/22 06:48:45;;;;;;;7.45;2.30;;;;;;;15.59;100.00;98233.44;5099405;28;20028;-95
2022/08/22 06:51:17;;;;;;;6.88;1.90;;;;;;;15.66;100.00;98237.59;5107942;28;20056;-96
2022/08/22 06:53:48;;;;;;;7.60;2.38;;;;;;;15.86;100.00;98234.19;5099061;28;20479;-96
2022/08/22 06:56:21;;;;;;;11.50;2.42;;;;;;;16.18;100.00;98239.97;5101049;28;20118;-96
2022/08/22 06:58:49;;;;;;;9.57;2.17;;;;;;;16.23;100.00;98230.13;5101408;28;20468;-96
2022/08/22 07:01:21;;;;;;;7.70;2.00;;;;;;;16.47;100.00;98225.63;5097502;28;20089;-95
2022/08/22 07:03:51;;;;;;;9.65;2.25;;;;;;;16.78;100.00;98236.63;5102495;28;20028;-96
2022/08/22 07:06:38;;;;;;;7.50;2.38;;;;;;;16.87;100.00;98236.25;5097688;28;20040;-96
2022/08/22 07:09:05;;;;;;;7.75;1.98;;;;;;;17.15;100.00;98222.75;5095731;28;20024;-93
2022/08/22 07:11:38;;;;;;;6.20;1.88;;;;;;;17.42;100.00;98224.22;5094536;28;20111;-95
2022/08/22 07:14:06;;;;;;;7.05;2.30;;;;;;;17.53;100.00;98221.94;5096101;28;20111;-93
2022/08/22 07:16:48;;;;;;;5.53;1.60;;;;;;;17.64;100.00;98221.44;5104679;28;20875;-91
2022/08/22 07:19:39;;;;;;;8.30;1.88;;;;;;;18.10;100.00;98203.44;5096847;27;20055;-91
2022/08/22 07:22:21;;;;;;;6.50;1.60;;;;;;;18.03;100.00;98196.78;5099201;28;20028;-93
2022/08/22 07:24:55;;;;;;;6.68;1.77;;;;;;;18.12;100.00;98193.69;5111178;28;20036;-96
2022/08/22 07:31:07;;;;;;;6.03;1.60;;;;;;;18.08;100.00;98189.50;5113544;28;20073;-93
2022/08/22 07:33:51;;;;;;;7.03;1.48;;;;;;;18.49;100.00;98188.38;5114353;28;20039;-95
2022/08/22 07:36:23;;;;;;;6.13;1.55;;;;;;;18.69;100.00;98177.66;5098103;28;20078;-92
2022/08/22 07:39:08;;;;;;;8.07;1.83;;;;;;;18.60;100.00;98173.66;5103097;28;20055;-90
2022/08/22 07:41:53;;;;;;;7.38;1.80;;;;;;;18.60;100.00;98171.03;5101195;28;20598;-92
2022/08/22 07:44:25;;;;;;;6.10;1.40;;;;;;;18.59;100.00;98177.25;5106820;28;20030;-92
2022/08/22 07:47:16;;;;;;;6.22;1.60;;;;;;;19.04;100.00;98172.34;5098409;28;20028;-93
2022/08/22 07:49:51;;;;;;;8.00;1.60;;;;;;;18.98;100.00;98156.78;5101666;28;20035;-94
2022/08/22 07:52:20;;;;;;;6.85;1.60;;;;;;;19.21;100.00;98157.38;5101547;28;20027;-94
2022/08/22 07:55:05;;;;;;;6.10;1.70;;;;;;;19.01;100.00;98155.78;5107681;28;20080;-96
2022/08/22 07:57:43;;;;;;;7.90;1.90;;;;;;;18.72;100.00;98144.94;5107997;28;20031;-94
2022/08/22 08:00:18;;;;;;;8.07;1.95;;;;;;;18.98;100.00;98148.00;5109192;27;20111;-92
2022/08/22 08:02:53;;;;;;;6.95;1.85;;;;;;;19.14;100.00;98140.97;5098325;27;20040;-93
2022/08/22 08:05:26;;;;;;;7.50;1.98;;;;;;;19.55;100.00;98129.91;5099022;28;20024;-93
2022/08/22 08:07:53;;;;;;;;;;;;;;;19.79;100.00;98126.81;5094661;28;20821;-91
2022/08/22 08:10:26;;;;;;;7.00;1.85;;;;;;;19.90;100.00;98113.88;5091342;28;19933;-94
2022/08/22 08:12:58;;;;;;;7.65;1.85;;;;;;;20.09;100.00;98113.63;5092961;28;20032;-94
2022/08/22 08:15:25;;;;;;;8.27;2.08;;;;;;;20.17;100.00;98109.72;5110537;28;20036;-93
2022/08/22 08:18:02;;;;;;;7.13;2.10;;;;;;;20.22;100.00;98107.63;5113084;28;20028;-93
2022/08/22 08:20:29;;;;;;;8.25;1.85;;;;;;;20.29;100.00;98103.66;5098035;28;20054;-96
2022/08/22 08:23:00;;;;;;;9.00;2.17;;;;;;;20.41;100.00;98110.03;5106175;28;20036;-92
2022/08/22 08:25:30;;;;;;;7.70;1.90;;;;;;;20.37;100.00;98097.94;5113844;28;20033;-94
2022/08/22 08:30:54;;;;;;;7.72;2.30;;;;;;;20.56;100.00;98093.22;5115677;28;20047;-95
2022/08/22 08:33:25;;;;;;;8.73;2.28;;;;;;;20.93;100.00;98098.97;5108512;28;20412;-94
2022/08/22 08:36:18;;;;;;;9.32;2.40;;;;;;;21.12;100.00;98087.19;5126580;28;20015;-94
2022/08/22 08:39:08;;;;;;;9.20;2.20;;;;;;;21.00;100.00;98083.50;5136455;28;20024;-93
2022/08/22 08:42:02;;;;;;;8.50;2.13;;;;;;;21.05;100.00;98081.44;5100373;28;20479;-94
2022/08/22 08:44:37;;;;;;;;;;;;;;;20.93;100.00;98088.38;5091780;28;20492;-93
2022/08/22 08:47:24;;;;;;;10.20;2.28;;;;;;;20.97;100.00;98092.53;5090845;28;19915;-93
2022/08/22 08:50:00;;;;;;;9.30;2.40;;;;;;;21.36;100.00;98086.59;5105429;28;20081;-94
2022/08/22 08:52:52;;;;;;;9.38;2.28;;;;;;;21.65;100.00;98084.72;5107373;28;20034;-94
2022/08/22 08:55:25;;;;;;;9.52;2.88;;;;;;;22.02;100.00;98074.34;5089878;28;20055;-95
2022/08/22 08:58:25;;;;;;;9.10;2.25;;;;;;;22.30;100.00;98077.78;5092209;28;20036;-92
2022/08/22 09:01:06;;;;;;;10.82;2.10;;;;;;;22.47;100.00;98077.50;5095802;28;20046;-93
2022/08/22 09:03:57;;;;;;;8.23;2.38;;;;;;;22.31;100.00;98068.84;5096178;28;20028;-93
2022/08/22 09:07:08;;;;;;;8.40;2.25;;;;;;;22.29;100.00;98068.13;5099128;28;20024;-92
2022/08/22 09:10:16;;;;;;;10.32;2.45;;;;;;;22.50;100.00;98066.69;5071388;28;20032;-94
2022/08/22 09:13:05;;;;;;;9.10;2.30;;;;;;;22.87;100.00;98055.28;5111368;28;20027;-95
2022/08/22 09:15:58;;;;;;;9.93;2.15;;;;;;;22.78;100.00;98059.44;5108840;28;20047;-95
2022/08/22 09:18:32;;;;;;;10.40;2.25;;;;;;;22.42;100.00;98058.41;5096812;28;20035;-93
2022/08/22 09:21:06;;;;;;;10.25;2.50;;;;;;;21.94;100.00;98058.91;5108071;28;20042;-91
2022/08/22 09:23:35;;;;;;;9.10;2.42;;;;;;;21.96;100.00;98058.81;5095029;28;20032;-94
2022/08/22 09:26:21;;;;;;;9.30;2.17;;;;;;;21.41;100.00;98053.50;5095645;28;20027;-93
2022/08/22 09:28:59;;;;;;;9.52;2.60;;;;;;;21.72;100.00;98051.53;5091944;28;20161;-95
2022/08/22 09:31:28;;;;;;;9.27;2.30;;;;;;;21.57;100.00;98044.59;5088692;28;20110;-94
2022/08/22 09:34:09;;;;;;;8.93;2.40;;;;;;;22.00;100.00;98044.38;5091230;28;20051;-93
2022/08/22 09:37:31;;;;;;;8.85;2.33;;;;;;;22.04;100.00;98048.53;5092291;28;20557;-93
2022/08/22 09:40:12;;;;;;;9.27;2.20;;;;;;;22.12;100.00;98034.75;5016130;28;20144;-92
2022/08/22 09:42:48;;;;;;;12.35;2.38;;;;;;;22.14;100.00;98032.81;5030334;28;20025;-95
2022/08/22 09:45:20;;;;;;;8.50;2.00;;;;;;;22.26;100.00;98031.97;5042896;28;20679;-92
2022/08/22 09:47:49;;;;;;;11.57;2.67;;;;;;;22.43;100.00;98036.16;5048050;28;20037;-93
2022/08/22 09:50:23;;;;;;;8.43;2.25;;;;;;;22.15;100.00;98023.91;5022333;28;20035;-93
2022/08/22 09:53:12;;;;;;;9.85;2.30;;;;;;;22.37;100.00;98023.31;5024098;28;20030;-94
2022/08/22 09:55:55;;;;;;;8.60;2.53;;;;;;;22.48;100.00;98020.75;5030270;28;20057;-94
2022/08/22 09:58:42;;;;;;;11.60;2.28;;;;;;;23.33;100.00;98017.41;5038963;28;20033;-93
2022/08/22 10:01:28;;;;;;;8.57;2.35;;;;;;;23.11;100.00;98012.78;5021624;28;20167;-94
2022/08/22 10:04:24;;;;;;;11.23;2.50;;;;;;;23.06;100.00;98014.94;5014079;28;20040;-94
2022/08/22 10:07:04;;;;;;;8.63;2.53;;;;;;;22.76;100.00;98007.34;5048031;28;20072;-92
2022/08/22 10:09:48;;;;;;;8.13;2.38;;;;;;;22.56;100.00;98006.94;5030349;28;20021;-94
2022/08/22 10:12:50;;;;;;;11.35;2.40;;;;;;;22.52;100.00;98009.91;5048884;28;20123;-93
2022/08/22 10:15:43;;;;;;;9.30;2.33;;;;;;;22.84;100.00;98000.50;5086799;28;20040;-95
2022/08/22 10:18:28;;;;;;;;;;;;;;;23.29;100.00;97989.34;5096715;28;20118;-93
2022/08/22 10:21:24;;;;;;;8.85;2.40;;;;;;;23.59;100.00;98006.66;5097826;28;19912;-94
2022/08/22 10:24:00;;;;;;;9.60;2.40;;;;;;;23.31;100.00;97986.56;5096820;28;20658;-93
2022/08/22 10:26:47;;;;;;;8.18;1.90;;;;;;;23.59;100.00;97995.16;5109720;28;20031;-94
2022/08/22 10:29:36;;;;;;;7.57;1.83;;;;;;;25.42;100.00;97995.22;5112876;28;20023;-93
2022/08/22 10:32:19;;;;;;;10.52;2.28;;;;;;;24.31;100.00;97995.00;5086066;27;20134;-94
2022/08/22 10:34:54;;;;;;;9.02;2.00;;;;;;;23.91;100.00;97994.56;5117549;28;20490;-94
2022/08/22 10:37:50;;;;;;;8.18;2.17;;;;;;;24.06;100.00;98004.03;5118288;28;20027;-92
2022/08/22 10:40:36;;;;;;;10.43;2.22;;;;;;;23.19;100.00;98006.94;5114689;28;20047;-94
2022/08/22 10:43:11;;;;;;;9.30;2.35;;;;;;;23.63;100.00;98007.28;5120840;28;20028;-95
2022/08/22 10:45:42;;;;;;;9.10;2.20;;;;;;;23.35;100.00;98004.00;5117525;28;20513;-94
2022/08/22 10:48:08;;;;;;;7.82;2.28;;;;;;;23.18;100.00;98007.91;5099472;28;20039;-93
2022/08/22 10:50:41;;;;;;;8.60;2.40;;;;;;;23.38;100.00;98006.41;5112550;28;20072;-93
2022/08/22 10:53:33;;;;;;;9.45;2.33;;;;;;;23.30;100.00;98006.16;5106251;28;20391;-94
2022/08/22 10:56:15;;;;;;;8.30;2.25;;;;;;;24.51;100.00;97997.94;5104158;28;20059;-92
2022/08/22 10:59:11;;;;;;;10.55;2.60;;;;;;;25.17;100.00;97995.34;5111223;28;20036;-93
2022/08/22 11:01:59;;;;;;;9.77;2.67;;;;;;;25.99;100.00;98006.50;5105419;28;20040;-94
2022/08/22 11:04:43;;;;;;;8.90;2.20;;;;;;;24.80;100.00;97994.81;5100821;28;20028;-92
2022/08/22 11:07:52;;;;;;;9.77;2.50;;;;;;;24.39;100.00;98004.25;5098665;28;20048;-92
2022/08/22 11:10:59;;;;;;;9.32;2.50;;;;;;;24.11;100.00;98001.88;5105303;28;20081;-93
2022/08/22 11:13:38;;;;;;;10.82;2.60;;;;;;;23.96;100.00;98008.38;5087888;28;20031;-93
2022/08/22 11:16:16;;;;;;;7.28;2.15;;;;;;;24.44;100.00;97996.72;5088822;28;20081;-93
2022/08/22 11:19:07;;;;;;;11.43;2.83;;;;;;;24.01;100.00;97995.59;5096894;28;20123;-92
2022/08/22 11:22:18;;;;;;;9.38;2.55;;;;;;;24.66;100.00;97998.56;5100905;28;20027;-91
2022/08/22 11:24:44;;;;;;;10.57;2.75;;;;;;;24.83;100.00;97992.75;5101707;28;20031;-93
2022/08/22 11:27:17;;;;;;;9.43;2.70;;;;;;;24.69;100.00;97991.19;5110321;28;20791;-91
2022/08/22 11:30:05;;;;;;;9.95;2.85;;;;;;;25.06;100.00;97995.38;5105454;28;20089;-94
2022/08/22 11:33:07;;;;;;;12.88;2.42;;;;;;;24.54;100.00;97997.69;5088246;28;20445;-92
2022/08/22 11:36:02;;;;;;;9.52;2.53;;;;;;;23.79;100.00;97991.84;5089670;28;20043;-93
2022/08/22 11:38:56;;;;;;;9.30;2.42;;;;;;;23.77;100.00;97983.13;5086411;28;20036;-93
2022/08/22 11:41:34;;;;;;;11.07;2.75;;;;;;;23.59;100.00;97981.84;5104296;28;20036;-94
2022/08/22 11:44:22;;;;;;;10.05;2.55;;;;;;;24.25;100.00;97971.50;5110384;28;20023;-94
2022/08/22 11:46:56;;;;;;;10.32;2.20;;;;;;;25.50;100.00;97977.56;5107273;28;20044;-93
2022/08/22 11:49:51;;;;;;;10.25;2.60;;;;;;;24.59;100.00;97978.66;5098457;28;20051;-93
2022/08/22 11:52:38;;;;;;;9.95;2.40;;;;;;;24.64;100.00;97968.53;5105999;28;20075;-93
2022/08/22 11:55:15;;;;;;;9.27;2.30;;;;;;;24.69;100.00;97974.31;5093050;28;20180;-94
2022/08/22 11:57:47;;;;;;;12.07;2.58;;;;;;;24.51;100.00;97957.97;5109458;28;20031;-94
2022/08/22 12:00:22;;;;;;;12.52;2.30;;;;;;;24.76;100.00;97969.34;5106038;28;20114;-93
2022/08/22 12:02:53;;;;;;;9.32;2.25;;;;;;;25.03;100.00;97966.28;5095839;28;20119;-93
2022/08/22 12:05:23;;;;;;;10.57;2.45;;;;;;;24.38;100.00;97963.41;5099978;28;20031;-91
2022/08/22 12:08:02;;;;;;;13.55;2.75;;;;;;;24.63;100.00;97954.34;5104904;28;20035;-91
2022/08/22 12:10:44;;;;;;;9.20;2.38;;;;;;;24.10;100.00;97954.91;5094774;28;20028;-91
2022/08/22 12:13:35;;;;;;;9.23;2.63;;;;;;;24.87;100.00;97954.19;5104721;28;20032;-92
2022/08/22 12:16:00;;;;;;;9.70;2.55;;;;;;;24.54;100.00;97944.38;5094241;28;20028;-93
2022/08/22 12:18:49;;;;;;;11.80;2.30;;;;;;;23.65;100.00;97941.47;5102734;28;20042;-94
2022/08/22 12:21:46;;;;;;;13.00;3.03;;;;;;;23.33;100.00;97934.94;5111350;28;20039;-93
2022/08/22 12:24:32;;;;;;;10.93;2.80;;;;;;;23.63;100.00;97938.06;5104235;28;20059;-92
2022/08/22 12:27:19;;;;;;;8.88;2.15;;;;;;;23.28;100.00;97934.41;5111639;28;20036;-94
2022/08/22 12:30:03;;;;;;;11.13;2.58;;;;;;;23.41;100.00;97928.19;5103491;27;20028;-94
2022/08/22 12:32:51;;;;;;;10.45;2.60;;;;;;;23.33;100.00;97929.59;5109391;28;20162;-93
2022/08/22 12:39:14;;;;;;;9.30;2.20;;;;;;;23.34;100.00;97933.13;5098674;28;20047;-93
2022/08/22 12:42:24;;;;;;;10.50;2.65;;;;;;;23.76;100.00;97930.84;5090163;28;20035;-94
2022/08/22 12:44:59;;;;;;;10.07;2.42;;;;;;;23.69;100.00;97937.59;5077837;28;20118;-94
2022/08/22 12:47:37;;;;;;;9.10;2.20;;;;;;;24.01;100.00;97932.50;5098715;28;20027;-94